createdAt,value
2023-04-15T04:15:12.957Z,9.00
2023-04-15T04:16:13.017Z,9.60
2023-04-15T04:17:12.975Z,11.10
2023-04-15T04:18:12.882Z,8.90
2023-04-15T04:19:12.875Z,9.70
2023-04-15T04:20:12.855Z,9.70
2023-04-15T04:21:12.863Z,9.30
2023-04-15T04:22:12.836Z,10.50
2023-04-15T04:23:12.818Z,11.60
2023-04-15T04:24:12.808Z,11.60
2023-04-15T04:25:12.792Z,11.90
2023-04-15T04:26:12.788Z,12.10
2023-04-15T04:27:12.788Z,11.50
2023-04-15T04:28:12.754Z,11.10
2023-04-15T04:29:12.795Z,10.90
2023-04-15T04:30:12.723Z,11.20
2023-04-15T04:31:12.732Z,10.20
2023-04-15T04:32:12.778Z,10.40
2023-04-15T04:33:12.717Z,11.50
2023-04-15T04:34:12.674Z,11.20
2023-04-15T04:35:12.662Z,12.20
2023-04-15T04:36:12.656Z,11.30
2023-04-15T04:37:12.637Z,11.90
2023-04-15T04:38:12.626Z,11.70
2023-04-15T04:39:12.615Z,10.70
2023-04-15T04:40:12.586Z,11.40
2023-04-15T04:41:12.612Z,11.40
2023-04-15T04:42:12.569Z,11.30
2023-04-15T04:43:12.561Z,11.40
2023-04-15T04:44:12.540Z,11.20
2023-04-15T04:45:12.542Z,11.20
2023-04-15T04:46:12.588Z,10.90
2023-04-15T04:47:12.507Z,10.60
2023-04-15T04:48:12.492Z,10.80
2023-04-15T04:49:12.486Z,11.60
2023-04-15T04:50:12.462Z,10.20
2023-04-15T04:51:12.472Z,10.90
2023-04-15T04:52:12.440Z,10.70
2023-04-15T04:53:12.447Z,11.10
2023-04-15T04:54:12.408Z,9.70
2023-04-15T04:55:12.403Z,10.20
2023-04-15T04:56:12.412Z,11.20
2023-04-15T04:57:12.374Z,10.00
2023-04-15T04:58:12.368Z,10.00
2023-04-15T04:59:12.350Z,9.90
2023-04-15T05:00:12.336Z,10.50
2023-04-15T05:01:12.356Z,10.50
2023-04-15T05:02:12.390Z,10.90
2023-04-15T05:03:12.475Z,10.80
2023-04-15T05:04:12.349Z,12.10
2023-04-15T05:05:12.311Z,10.40
2023-04-15T05:06:12.258Z,10.60
2023-04-15T05:07:12.244Z,10.90
2023-04-15T05:08:12.232Z,11.10
2023-04-15T05:09:12.236Z,11.20
2023-04-15T05:10:12.209Z,11.20
2023-04-15T05:11:12.207Z,11.70
2023-04-15T05:12:12.174Z,11.30
2023-04-15T05:13:12.177Z,11.40
2023-04-15T05:14:12.152Z,11.30
2023-04-15T05:15:12.136Z,11.70
2023-04-15T05:16:12.191Z,11.30
2023-04-15T05:17:12.106Z,12.30
2023-04-15T05:18:12.109Z,12.40
2023-04-15T05:19:12.108Z,11.00
2023-04-15T05:20:12.072Z,11.70
2023-04-15T05:21:12.072Z,11.60
2023-04-15T05:22:12.043Z,11.00
2023-04-15T05:23:12.035Z,11.30
2023-04-15T05:24:12.016Z,11.60
2023-04-15T05:25:12.015Z,11.50
2023-04-15T05:26:12.004Z,11.00
2023-04-15T05:27:11.993Z,12.00
2023-04-15T05:28:11.965Z,12.00
2023-04-15T05:29:11.958Z,10.80
2023-04-15T05:30:13.446Z,11.20
2023-04-15T05:31:11.964Z,11.80
2023-04-15T05:32:11.918Z,11.40
2023-04-15T05:33:11.908Z,10.80
2023-04-15T05:34:11.895Z,10.90
2023-04-15T05:35:11.894Z,10.80
2023-04-15T05:36:11.875Z,11.00
2023-04-15T05:37:11.853Z,10.70
2023-04-15T05:38:11.836Z,11.30
2023-04-15T05:39:11.829Z,10.80
2023-04-15T05:40:11.814Z,11.10
2023-04-15T05:41:11.822Z,11.00
2023-04-15T05:42:11.780Z,10.50
2023-04-15T05:43:11.785Z,11.20
2023-04-15T05:44:11.767Z,10.40
2023-04-15T05:45:11.749Z,10.70
2023-04-15T05:46:11.783Z,10.80
2023-04-15T05:47:11.719Z,10.40
2023-04-15T05:48:11.707Z,10.10
2023-04-15T05:49:11.702Z,10.50
2023-04-15T05:50:11.683Z,10.50
2023-04-15T05:51:11.715Z,10.50
2023-04-15T05:52:11.658Z,10.40
2023-04-15T05:53:11.660Z,10.60
2023-04-15T05:54:11.641Z,10.50
2023-04-15T05:55:11.618Z,10.20
2023-04-15T05:56:11.619Z,10.00
2023-04-15T05:57:11.589Z,10.10
2023-04-15T05:58:11.582Z,10.10
2023-04-15T05:59:11.573Z,10.60
2023-04-15T06:00:11.554Z,10.30
2023-04-15T06:01:11.549Z,10.10
2023-04-15T06:02:11.642Z,10.20
2023-04-15T06:03:11.643Z,9.70
2023-04-15T06:04:11.713Z,9.90
2023-04-15T06:05:11.487Z,10.00
2023-04-15T06:06:11.492Z,10.20
2023-04-15T06:07:11.468Z,10.30
2023-04-15T06:08:11.475Z,9.70
2023-04-15T06:09:11.457Z,10.00
2023-04-15T06:10:11.420Z,9.80
2023-04-15T06:11:11.421Z,9.40
2023-04-15T06:12:11.399Z,9.30
2023-04-15T06:13:11.383Z,9.20
2023-04-15T06:14:11.369Z,9.50
2023-04-15T06:15:11.358Z,9.40
2023-04-15T06:16:11.358Z,9.90
2023-04-15T06:17:11.328Z,9.00
2023-04-15T06:18:11.309Z,8.50
2023-04-15T06:19:11.299Z,9.60
2023-04-15T06:20:11.306Z,9.50
2023-04-15T06:21:11.286Z,9.40
2023-04-15T06:22:11.273Z,9.20
2023-04-15T06:23:11.249Z,9.90
2023-04-15T06:24:11.232Z,10.00
2023-04-15T06:25:11.242Z,9.50
2023-04-15T06:26:11.213Z,9.60
2023-04-15T06:27:11.204Z,10.00
2023-04-15T06:28:11.176Z,9.10
2023-04-15T06:29:11.166Z,10.90
2023-04-15T06:30:11.153Z,10.30
2023-04-15T06:31:11.162Z,9.00
2023-04-15T06:32:11.125Z,9.20
2023-04-15T06:33:11.111Z,9.50
2023-04-15T06:34:11.129Z,8.80
2023-04-15T06:35:11.102Z,8.90
2023-04-15T06:36:11.092Z,9.50
2023-04-15T06:37:11.072Z,9.20
2023-04-15T06:38:11.046Z,9.30
2023-04-15T06:39:11.034Z,10.00
2023-04-15T06:40:11.031Z,10.80
2023-04-15T06:41:11.006Z,9.00
2023-04-15T06:42:10.993Z,9.50
2023-04-15T06:43:10.979Z,9.20
2023-04-15T06:44:10.961Z,9.10
2023-04-15T06:45:10.974Z,9.70
2023-04-15T06:46:10.967Z,9.00
2023-04-15T06:47:10.930Z,9.10
2023-04-15T06:48:10.914Z,8.70
2023-04-15T06:49:10.905Z,9.80
2023-04-15T06:50:10.881Z,9.00
2023-04-15T06:51:10.889Z,8.70
2023-04-15T06:52:10.855Z,9.40
2023-04-15T06:53:10.852Z,10.10
2023-04-15T06:54:10.852Z,9.50
2023-04-15T06:55:10.853Z,9.70
2023-04-15T06:56:10.818Z,9.10
2023-04-15T06:57:10.819Z,8.80
2023-04-15T06:58:10.775Z,8.60
2023-04-15T06:59:10.769Z,8.50
2023-04-15T07:00:10.763Z,9.40
2023-04-15T07:01:10.813Z,8.70
2023-04-15T07:02:10.777Z,9.40
2023-04-15T07:03:10.763Z,9.50
2023-04-15T07:04:10.734Z,9.20
2023-04-15T07:05:10.706Z,9.40
2023-04-15T07:06:10.676Z,9.10
2023-04-15T07:07:10.658Z,8.90
2023-04-15T07:08:10.646Z,9.00
2023-04-15T07:09:10.649Z,9.40
2023-04-15T07:10:10.638Z,9.10
2023-04-15T07:11:10.624Z,9.10
2023-04-15T07:12:10.601Z,9.00
2023-04-15T07:13:10.591Z,9.00
2023-04-15T07:14:10.592Z,8.30
2023-04-15T07:15:10.576Z,8.60
2023-04-15T07:16:10.594Z,9.30
2023-04-15T07:17:10.594Z,9.30
2023-04-15T07:18:10.525Z,8.20
2023-04-15T07:19:10.505Z,8.90
2023-04-15T07:20:10.526Z,8.70
2023-04-15T07:21:10.479Z,8.50
2023-04-15T07:22:10.466Z,8.50
2023-04-15T07:23:10.455Z,7.80
2023-04-15T07:24:10.512Z,7.60
2023-04-15T07:25:10.439Z,8.10
2023-04-15T07:26:10.412Z,8.00
2023-04-15T07:27:10.421Z,7.40
2023-04-15T07:28:10.385Z,7.40
2023-04-15T07:29:10.378Z,7.10
2023-04-15T07:30:10.377Z,7.80
2023-04-15T07:31:10.411Z,8.20
2023-04-15T07:32:10.367Z,7.10
2023-04-15T07:33:10.319Z,7.50
2023-04-15T07:34:10.358Z,7.70
2023-04-15T07:35:10.313Z,8.10
2023-04-15T07:36:10.293Z,8.00
2023-04-15T07:37:10.265Z,7.50
2023-04-15T07:38:10.261Z,7.30
2023-04-15T07:39:10.240Z,7.90
2023-04-15T07:40:10.259Z,7.60
2023-04-15T07:41:10.215Z,7.40
2023-04-15T07:42:10.202Z,7.80
2023-04-15T07:43:10.198Z,8.40
2023-04-15T07:44:10.191Z,7.60
2023-04-15T07:45:10.178Z,7.90
2023-04-15T07:46:10.174Z,7.30
2023-04-15T07:47:10.143Z,7.30
2023-04-15T07:48:10.134Z,7.20
2023-04-15T07:49:10.115Z,7.50
2023-04-15T07:50:10.106Z,6.80
2023-04-15T07:51:10.087Z,6.50
2023-04-15T07:52:10.071Z,6.70
2023-04-15T07:53:10.069Z,7.50
2023-04-15T07:54:10.056Z,6.90
2023-04-15T07:55:10.053Z,6.80
2023-04-15T07:56:10.016Z,6.70
2023-04-15T07:57:10.013Z,7.10
2023-04-15T07:58:09.999Z,6.30
2023-04-15T07:59:09.990Z,7.00
2023-04-15T08:00:09.989Z,7.00
2023-04-15T08:01:09.965Z,7.10
2023-04-15T08:02:10.067Z,7.50
2023-04-15T08:03:10.085Z,7.00
2023-04-15T08:04:10.158Z,7.40
2023-04-15T08:05:09.970Z,7.50
2023-04-15T08:06:09.891Z,7.50
2023-04-15T08:07:09.874Z,7.60
2023-04-15T08:08:09.861Z,7.40
2023-04-15T08:09:09.858Z,8.20
2023-04-15T08:10:09.845Z,8.40
2023-04-15T08:11:09.828Z,7.70
2023-04-15T08:12:09.806Z,8.00
2023-04-15T08:13:09.800Z,8.60
2023-04-15T08:14:09.779Z,8.60
2023-04-15T08:15:09.788Z,8.00
2023-04-15T08:16:09.791Z,8.30
2023-04-15T08:17:09.747Z,7.90
2023-04-15T08:18:09.722Z,8.00
2023-04-15T08:19:09.722Z,8.30
2023-04-15T08:20:09.709Z,8.00
2023-04-15T08:21:09.692Z,7.90
2023-04-15T08:22:10.363Z,7.60
2023-04-15T08:23:10.665Z,7.70
2023-04-15T08:24:09.657Z,7.40
2023-04-15T08:25:09.652Z,8.00
2023-04-15T08:26:09.623Z,7.40
2023-04-15T08:27:09.624Z,7.80
2023-04-15T08:28:09.594Z,7.90
2023-04-15T08:29:09.596Z,8.10
2023-04-15T08:30:09.579Z,7.10
2023-04-15T08:31:09.649Z,7.30
2023-04-15T08:32:09.584Z,7.30
2023-04-15T08:33:09.544Z,6.50
2023-04-15T08:34:09.527Z,6.90
2023-04-15T08:35:09.512Z,8.60
2023-04-15T08:36:09.490Z,7.40
2023-04-15T08:37:10.848Z,6.80
2023-04-15T08:38:09.461Z,7.40
2023-04-15T08:39:09.458Z,6.90
2023-04-15T08:40:09.451Z,7.60
2023-04-15T08:41:09.426Z,7.20
2023-04-15T08:42:09.404Z,7.10
2023-04-15T08:43:09.418Z,7.40
2023-04-15T08:44:09.391Z,7.70
2023-04-15T08:45:09.406Z,7.80
2023-04-15T08:46:09.362Z,7.10
2023-04-15T08:47:09.437Z,7.80
2023-04-15T08:48:09.333Z,7.40
2023-04-15T08:49:09.322Z,6.90
2023-04-15T08:50:09.315Z,7.20
2023-04-15T08:51:09.306Z,7.40
2023-04-15T08:52:09.283Z,7.60
2023-04-15T08:53:09.276Z,7.20
2023-04-15T08:54:09.251Z,7.40
2023-04-15T08:55:09.258Z,7.10
2023-04-15T08:56:09.227Z,7.30
2023-04-15T08:57:09.221Z,7.30
2023-04-15T08:58:09.200Z,7.20
2023-04-15T08:59:09.194Z,7.70
2023-04-15T09:00:09.206Z,7.20
2023-04-15T09:01:09.195Z,7.60
2023-04-15T09:02:09.192Z,8.50
2023-04-15T09:03:09.279Z,7.30
2023-04-15T09:04:09.141Z,7.40
2023-04-15T09:05:09.128Z,7.30
2023-04-15T09:06:09.084Z,7.40
2023-04-15T09:07:09.085Z,7.50
2023-04-15T09:08:09.098Z,8.10
2023-04-15T09:09:09.057Z,7.10
2023-04-15T09:10:09.069Z,7.00
2023-04-15T09:11:09.048Z,7.60
2023-04-15T09:12:09.018Z,6.60
2023-04-15T09:13:09.007Z,6.80
2023-04-15T09:14:08.993Z,6.10
2023-04-15T09:15:08.991Z,7.40
2023-04-15T09:16:08.986Z,6.40
2023-04-15T09:17:08.948Z,6.70
2023-04-15T09:18:08.943Z,6.40
2023-04-15T09:19:08.940Z,7.20
2023-04-15T09:20:08.942Z,6.20
2023-04-15T09:21:08.914Z,6.10
2023-04-15T09:22:08.885Z,5.60
2023-04-15T09:23:08.872Z,6.10
2023-04-15T09:24:08.860Z,5.90
2023-04-15T09:25:08.857Z,6.20
2023-04-15T09:26:08.832Z,6.50
2023-04-15T09:27:08.830Z,7.00
2023-04-15T09:28:08.812Z,5.80
2023-04-15T09:29:08.800Z,6.40
2023-04-15T09:30:08.795Z,6.10
2023-04-15T09:31:08.830Z,8.00
2023-04-15T09:32:08.748Z,5.90
2023-04-15T09:33:09.056Z,6.10
2023-04-15T09:34:08.727Z,5.30
2023-04-15T09:35:08.735Z,5.90
2023-04-15T09:36:08.702Z,5.50
2023-04-15T09:37:08.698Z,5.30
2023-04-15T09:38:08.677Z,5.60
2023-04-15T09:39:08.669Z,5.20
2023-04-15T09:40:08.657Z,5.90
2023-04-15T09:41:08.638Z,5.30
2023-04-15T09:42:08.644Z,5.30
2023-04-15T09:43:08.617Z,5.30
2023-04-15T09:44:08.605Z,5.10
2023-04-15T09:45:08.600Z,5.30
2023-04-15T09:46:08.624Z,5.20
2023-04-15T09:47:08.554Z,4.70
2023-04-15T09:48:08.556Z,5.10
2023-04-15T09:49:08.534Z,4.90
2023-04-15T09:50:08.539Z,5.40
2023-04-15T09:51:08.504Z,4.80
2023-04-15T09:52:08.495Z,4.60
2023-04-15T09:53:08.498Z,5.10
2023-04-15T09:54:08.464Z,5.10
2023-04-15T09:55:08.452Z,4.90
2023-04-15T09:56:08.445Z,4.80
2023-04-15T09:57:08.465Z,4.90
2023-04-15T09:58:08.408Z,4.90
2023-04-15T09:59:08.411Z,5.20
2023-04-15T10:00:08.448Z,5.30
2023-04-15T10:01:08.394Z,5.50
2023-04-15T10:02:08.424Z,5.40
2023-04-15T10:03:08.460Z,4.80
2023-04-15T10:04:08.389Z,5.00
2023-04-15T10:05:08.347Z,4.70
2023-04-15T10:06:08.332Z,4.70
2023-04-15T10:07:08.299Z,4.80
2023-04-15T10:08:08.280Z,5.10
2023-04-15T10:09:08.282Z,4.90
2023-04-15T10:10:08.267Z,4.30
2023-04-15T10:11:08.246Z,5.00
2023-04-15T10:12:08.227Z,4.70
2023-04-15T10:13:08.219Z,4.70
2023-04-15T10:14:08.202Z,4.50
2023-04-15T10:15:08.198Z,4.70
2023-04-15T10:16:08.275Z,4.70
2023-04-15T10:17:08.159Z,5.40
2023-04-15T10:18:08.181Z,4.70
2023-04-15T10:19:08.403Z,5.00
2023-04-15T10:20:08.139Z,4.90
2023-04-15T10:21:08.108Z,4.90
2023-04-15T10:22:08.108Z,4.70
2023-04-15T10:23:09.910Z,4.30
2023-04-15T10:24:08.079Z,4.90
2023-04-15T10:25:08.064Z,4.90
2023-04-15T10:26:08.056Z,5.20
2023-04-15T10:27:08.027Z,4.60
2023-04-15T10:28:08.026Z,5.00
2023-04-15T10:29:08.001Z,4.40
2023-04-15T10:30:08.001Z,5.10
2023-04-15T10:31:08.000Z,4.90
2023-04-15T10:32:08.000Z,5.10
2023-04-15T10:33:07.945Z,5.00
2023-04-15T10:34:07.939Z,4.70
2023-04-15T10:35:07.925Z,5.30
2023-04-15T10:36:07.931Z,4.80
2023-04-15T10:37:07.891Z,4.40
2023-04-15T10:38:07.880Z,4.70
2023-04-15T10:39:07.875Z,4.80
2023-04-15T10:40:07.867Z,4.80
2023-04-15T10:41:07.836Z,4.90
2023-04-15T10:42:07.833Z,4.80
2023-04-15T10:43:07.817Z,4.70
2023-04-15T10:44:07.808Z,4.60
2023-04-15T10:45:07.793Z,5.40
2023-04-15T10:46:07.816Z,5.00
2023-04-15T10:47:07.760Z,5.00
2023-04-15T10:48:07.812Z,4.70
2023-04-15T10:49:07.732Z,5.10
2023-04-15T10:50:07.741Z,5.00
2023-04-15T10:51:07.709Z,4.70
2023-04-15T10:52:07.695Z,5.40
2023-04-15T10:53:07.676Z,4.30
2023-04-15T10:54:07.740Z,4.50
2023-04-15T10:55:07.680Z,4.40
2023-04-15T10:56:07.656Z,4.40
2023-04-15T10:57:07.629Z,4.30
2023-04-15T10:58:07.625Z,4.60
2023-04-15T10:59:07.594Z,4.20
2023-04-15T11:00:07.596Z,4.30
2023-04-15T11:01:07.569Z,4.20
2023-04-15T11:02:07.685Z,4.10
2023-04-15T11:03:07.831Z,3.90
2023-04-15T11:04:08.088Z,4.30
2023-04-15T11:05:07.526Z,4.00
2023-04-15T11:06:07.534Z,5.10
2023-04-15T11:07:07.508Z,4.30
2023-04-15T11:08:07.475Z,4.10
2023-04-15T11:09:07.467Z,4.10
2023-04-15T11:10:07.466Z,3.80
2023-04-15T11:11:07.441Z,4.20
2023-04-15T11:12:07.439Z,4.00
2023-04-15T11:13:07.407Z,3.80
2023-04-15T11:14:07.397Z,3.90
2023-04-15T11:15:07.389Z,4.00
2023-04-15T11:16:07.391Z,3.50
2023-04-15T11:17:07.345Z,3.70
2023-04-15T11:18:07.367Z,3.70
2023-04-15T11:19:07.327Z,3.90
2023-04-15T11:20:07.334Z,4.00
2023-04-15T11:21:07.299Z,3.90
2023-04-15T11:22:07.287Z,3.70
2023-04-15T11:23:14.607Z,3.90
2023-04-15T11:24:08.590Z,4.00
2023-04-15T11:25:07.256Z,3.60
2023-04-15T11:26:07.235Z,4.00
2023-04-15T11:27:07.214Z,4.20
2023-04-15T11:28:07.208Z,3.80
2023-04-15T11:29:07.188Z,4.40
2023-04-15T11:30:07.204Z,3.50
2023-04-15T11:31:07.161Z,3.80
2023-04-15T11:32:07.179Z,3.50
2023-04-15T11:33:07.133Z,3.60
2023-04-15T11:34:07.177Z,3.60
2023-04-15T11:35:07.114Z,3.50
2023-04-15T11:36:07.108Z,3.60
2023-04-15T11:37:07.075Z,3.50
2023-04-15T11:38:07.069Z,4.10
2023-04-15T11:39:07.049Z,3.60
2023-04-15T11:40:07.058Z,4.10
2023-04-15T11:41:07.026Z,3.80
2023-04-15T11:42:07.017Z,3.70
2023-04-15T11:43:07.006Z,3.80
2023-04-15T11:44:06.991Z,3.50
2023-04-15T11:45:06.985Z,4.00
2023-04-15T11:46:07.040Z,4.60
2023-04-15T11:47:06.940Z,3.40
2023-04-15T11:48:06.948Z,3.50
2023-04-15T11:49:06.920Z,3.70
2023-04-15T11:50:06.927Z,3.80
2023-04-15T11:51:06.896Z,3.70
2023-04-15T11:52:06.878Z,3.80
2023-04-15T11:53:08.599Z,3.80
2023-04-15T11:54:07.135Z,4.00
2023-04-15T11:55:06.845Z,3.50
2023-04-15T11:56:06.823Z,3.20
2023-04-15T11:57:06.822Z,3.50
2023-04-15T11:58:06.798Z,3.40
2023-04-15T11:59:06.774Z,3.70
2023-04-15T12:00:06.790Z,3.70
2023-04-15T12:01:06.755Z,3.80
2023-04-15T12:02:06.792Z,3.90
2023-04-15T12:03:06.907Z,3.70
2023-04-15T12:04:07.207Z,4.00
2023-04-15T12:05:06.779Z,3.80
2023-04-15T12:06:06.684Z,3.80
2023-04-15T12:07:06.669Z,4.20
2023-04-15T12:08:06.653Z,3.50
2023-04-15T12:09:06.656Z,3.90
2023-04-15T12:10:06.640Z,3.90
2023-04-15T12:11:06.624Z,3.50
2023-04-15T12:12:06.621Z,3.90
2023-04-15T12:13:06.600Z,3.60
2023-04-15T12:14:06.642Z,3.70
2023-04-15T12:15:06.581Z,3.60
2023-04-15T12:16:06.579Z,3.20
2023-04-15T12:17:06.543Z,3.20
2023-04-15T12:18:06.542Z,3.50
2023-04-15T12:19:06.519Z,3.20
2023-04-15T12:20:06.510Z,3.30
2023-04-15T12:21:06.483Z,3.30
2023-04-15T12:22:06.463Z,3.30
2023-04-15T12:23:06.469Z,2.90
2023-04-15T12:24:06.670Z,3.10
2023-04-15T12:25:06.478Z,3.40
2023-04-15T12:26:06.411Z,3.10
2023-04-15T12:27:06.410Z,3.00
2023-04-15T12:28:06.392Z,3.50
2023-04-15T12:29:06.408Z,3.30
2023-04-15T12:30:06.387Z,3.10
2023-04-15T12:31:06.384Z,3.20
2023-04-15T12:32:06.338Z,2.90
2023-04-15T12:33:06.378Z,3.40
2023-04-15T12:34:06.550Z,3.00
2023-04-15T12:35:06.324Z,2.70
2023-04-15T12:36:06.294Z,2.90
2023-04-15T12:37:06.286Z,2.70
2023-04-15T12:38:06.261Z,2.90
2023-04-15T12:39:06.306Z,2.60
2023-04-15T12:40:06.243Z,2.60
2023-04-15T12:41:06.228Z,2.50
2023-04-15T12:42:06.234Z,2.70
2023-04-15T12:43:06.201Z,2.60
2023-04-15T12:44:06.430Z,2.50
2023-04-15T12:45:06.187Z,2.60
2023-04-15T12:46:06.218Z,2.40
2023-04-15T12:47:06.152Z,2.60
2023-04-15T12:48:06.142Z,2.50
2023-04-15T12:49:06.130Z,2.30
2023-04-15T12:50:06.120Z,2.40
2023-04-15T12:51:06.100Z,2.50
2023-04-15T12:52:06.086Z,2.50
2023-04-15T12:53:06.081Z,2.60
2023-04-15T12:54:06.387Z,2.10
2023-04-15T12:55:06.192Z,2.40
2023-04-15T12:56:06.032Z,2.30
2023-04-15T12:57:07.467Z,2.30
2023-04-15T12:58:06.008Z,2.10
2023-04-15T12:59:06.005Z,2.30
2023-04-15T13:00:05.985Z,2.10
2023-04-15T13:01:05.971Z,2.00
2023-04-15T13:02:06.134Z,2.30
2023-04-15T13:03:07.214Z,2.10
2023-04-15T13:04:06.177Z,2.30
2023-04-15T13:05:05.945Z,2.30
2023-04-15T13:06:05.899Z,2.30
2023-04-15T13:07:05.912Z,2.50
2023-04-15T13:08:05.881Z,2.60
2023-04-15T13:09:06.138Z,2.30
2023-04-15T13:10:05.867Z,2.20
2023-04-15T13:11:05.857Z,2.30
2023-04-15T13:12:05.837Z,2.20
2023-04-15T13:13:05.832Z,2.60
2023-04-15T13:14:05.896Z,2.10
2023-04-15T13:15:05.882Z,2.00
2023-04-15T13:16:05.800Z,2.10
2023-04-15T13:17:05.752Z,2.00
2023-04-15T13:18:05.767Z,2.40
2023-04-15T13:19:05.746Z,2.10
2023-04-15T13:20:05.731Z,2.00
2023-04-15T13:21:05.713Z,2.10
2023-04-15T13:22:05.722Z,2.40
2023-04-15T13:23:05.686Z,2.20
2023-04-15T13:24:05.915Z,2.00
2023-04-15T13:25:05.678Z,1.90
2023-04-15T13:26:05.649Z,2.10
2023-04-15T13:27:05.627Z,1.70
2023-04-15T13:28:05.618Z,2.10
2023-04-15T13:29:05.608Z,2.20
2023-04-15T13:30:05.610Z,2.30
2023-04-15T13:31:05.611Z,2.20
2023-04-15T13:32:05.570Z,2.30
2023-04-15T13:33:05.566Z,2.20
2023-04-15T13:34:05.812Z,2.50
2023-04-15T13:35:05.543Z,2.20
2023-04-15T13:36:05.568Z,3.20
2023-04-15T13:37:05.501Z,2.60
2023-04-15T13:38:05.513Z,2.40
2023-04-15T13:39:05.488Z,2.10
2023-04-15T13:40:05.477Z,2.00
2023-04-15T13:41:05.456Z,1.90
2023-04-15T13:42:05.440Z,2.40
2023-04-15T13:43:05.424Z,1.90
2023-04-15T13:44:05.641Z,3.20
2023-04-15T13:45:05.405Z,2.60
2023-04-15T13:46:05.504Z,2.30
2023-04-15T13:47:05.379Z,1.90
2023-04-15T13:48:05.359Z,2.10
2023-04-15T13:49:05.349Z,2.10
2023-04-15T13:50:05.392Z,2.20
2023-04-15T13:51:05.344Z,1.90
2023-04-15T13:52:05.321Z,2.10
2023-04-15T13:53:05.288Z,1.90
2023-04-15T13:54:05.683Z,1.90
2023-04-15T13:55:19.438Z,1.90
2023-04-15T13:56:06.274Z,2.10
2023-04-15T13:57:05.244Z,1.90
2023-04-15T13:58:05.233Z,2.20
2023-04-15T13:59:05.218Z,1.90
2023-04-15T14:00:05.225Z,2.10
2023-04-15T14:01:06.298Z,2.00
2023-04-15T14:02:05.305Z,2.20
2023-04-15T14:03:05.350Z,1.80
2023-04-15T14:04:05.474Z,2.10
2023-04-15T14:05:05.128Z,2.00
2023-04-15T14:06:05.172Z,2.30
2023-04-15T14:07:05.413Z,2.00
2023-04-15T14:08:05.105Z,1.90
2023-04-15T14:09:05.410Z,1.90
2023-04-15T14:10:05.166Z,1.80
2023-04-15T14:11:05.093Z,2.10
2023-04-15T14:12:05.057Z,2.10
2023-04-15T14:13:05.027Z,2.50
2023-04-15T14:14:05.304Z,1.90
2023-04-15T14:15:05.020Z,2.00
2023-04-15T14:16:05.002Z,1.70
2023-04-15T14:17:04.978Z,1.80
2023-04-15T14:18:04.978Z,1.70
2023-04-15T14:19:05.194Z,1.80
2023-04-15T14:20:04.929Z,1.90
2023-04-15T14:21:04.921Z,2.00
2023-04-15T14:22:04.908Z,2.00
2023-04-15T14:23:04.894Z,2.00
2023-04-15T14:24:04.899Z,2.10
2023-04-15T14:25:04.865Z,2.00
2023-04-15T14:26:04.880Z,2.30
2023-04-15T14:27:04.845Z,2.00
2023-04-15T14:28:04.823Z,2.00
2023-04-15T14:29:05.056Z,2.30
2023-04-15T14:30:04.803Z,1.80
2023-04-15T14:31:04.849Z,2.10
2023-04-15T14:32:12.027Z,2.00
2023-04-15T14:33:05.760Z,2.60
2023-04-15T14:34:04.842Z,1.90
2023-04-15T14:35:04.740Z,2.30
2023-04-15T14:36:04.743Z,2.40
2023-04-15T14:37:04.705Z,2.00
2023-04-15T14:38:04.701Z,2.20
2023-04-15T14:39:04.897Z,2.00
2023-04-15T14:40:04.670Z,2.40
2023-04-15T14:41:04.660Z,2.30
2023-04-15T14:42:04.654Z,2.30
2023-04-15T14:43:04.633Z,2.50
2023-04-15T14:44:04.620Z,2.80
2023-04-15T14:45:04.607Z,3.00
2023-04-15T14:46:04.608Z,2.30
2023-04-15T14:47:04.580Z,2.30
2023-04-15T14:48:04.611Z,2.40
2023-04-15T14:49:04.722Z,3.30
2023-04-15T14:50:04.546Z,2.70
2023-04-15T14:51:04.541Z,2.50
2023-04-15T14:52:04.514Z,2.50
2023-04-15T14:53:04.497Z,2.70
2023-04-15T14:54:04.570Z,2.70
2023-04-15T14:55:04.469Z,2.80
2023-04-15T14:56:04.484Z,3.40
2023-04-15T14:57:04.446Z,3.00
2023-04-15T14:58:04.438Z,2.80
2023-04-15T14:59:04.570Z,3.10
2023-04-15T15:00:04.494Z,2.80
2023-04-15T15:01:04.516Z,2.80
2023-04-15T15:02:04.511Z,2.60
2023-04-15T15:03:04.419Z,2.30
2023-04-15T15:04:04.459Z,2.30
2023-04-15T15:05:04.448Z,2.50
2023-04-15T15:06:04.335Z,3.70
2023-04-15T15:07:04.316Z,3.00
2023-04-15T15:08:04.301Z,3.00
2023-04-15T15:09:04.548Z,2.90
2023-04-15T15:10:04.276Z,2.80
2023-04-15T15:11:04.265Z,2.90
2023-04-15T15:12:04.266Z,3.90
2023-04-15T15:13:04.239Z,2.70
2023-04-15T15:14:04.232Z,2.80
2023-04-15T15:15:12.330Z,2.90
2023-04-15T15:16:05.244Z,3.10
2023-04-15T15:17:04.179Z,2.80
2023-04-15T15:18:04.176Z,2.70
2023-04-15T15:19:04.374Z,2.70
2023-04-15T15:20:04.246Z,2.40
2023-04-15T15:21:04.144Z,2.90
2023-04-15T15:22:04.121Z,2.80
2023-04-15T15:23:04.099Z,2.90
2023-04-15T15:24:04.095Z,2.80
2023-04-15T15:25:04.076Z,3.10
2023-04-15T15:26:04.073Z,2.70
2023-04-15T15:27:04.059Z,2.60
2023-04-15T15:28:04.041Z,3.00
2023-04-15T15:29:04.347Z,3.20
2023-04-15T15:30:04.012Z,3.00
2023-04-15T15:31:04.036Z,4.10
2023-04-15T15:32:03.997Z,4.30
2023-04-15T15:33:04.074Z,3.40
2023-04-15T15:34:03.975Z,2.80
2023-04-15T15:35:03.947Z,3.60
2023-04-15T15:36:03.924Z,4.40
2023-04-15T15:37:03.930Z,3.90
2023-04-15T15:38:03.914Z,3.90
2023-04-15T15:39:05.151Z,4.80
2023-04-15T15:40:03.880Z,5.20
2023-04-15T15:41:03.882Z,6.50
2023-04-15T15:42:03.854Z,5.30
2023-04-15T15:43:03.843Z,4.30
2023-04-15T15:44:03.848Z,4.10
2023-04-15T15:45:03.814Z,5.00
2023-04-15T15:46:03.802Z,4.20
2023-04-15T15:47:03.936Z,3.70
2023-04-15T15:48:03.824Z,3.70
2023-04-15T15:49:04.043Z,2.80
2023-04-15T15:50:06.028Z,3.50
2023-04-15T15:51:03.734Z,3.20
2023-04-15T15:52:03.737Z,3.70
2023-04-15T15:53:03.723Z,3.20
2023-04-15T15:54:03.701Z,2.80
2023-04-15T15:55:03.695Z,2.70
2023-04-15T15:56:03.674Z,2.90
2023-04-15T15:57:03.663Z,2.30
2023-04-15T15:58:03.640Z,2.70
2023-04-15T15:59:03.848Z,2.40
2023-04-15T16:01:03.640Z,2.10
2023-04-15T16:02:03.729Z,1.90
2023-04-15T16:03:07.318Z,2.10
2023-04-15T16:04:03.699Z,1.90
2023-04-15T16:05:03.550Z,2.00
2023-04-15T16:06:03.530Z,2.10
2023-04-15T16:07:03.533Z,2.30
2023-04-15T16:08:03.514Z,2.10
2023-04-15T16:09:03.719Z,2.10
2023-04-15T16:10:03.482Z,2.20
2023-04-15T16:11:03.469Z,2.00
2023-04-15T16:12:03.478Z,2.20
2023-04-15T16:13:03.438Z,1.90
2023-04-15T16:14:03.427Z,2.50
2023-04-15T16:15:03.413Z,2.20
2023-04-15T16:16:03.411Z,2.10
2023-04-15T16:17:03.401Z,1.90
2023-04-15T16:18:03.419Z,2.70
2023-04-15T16:19:03.656Z,2.00
2023-04-15T16:20:03.436Z,2.10
2023-04-15T16:21:03.338Z,2.10
2023-04-15T16:22:03.346Z,2.00
2023-04-15T16:23:03.356Z,5.80
2023-04-15T16:24:03.298Z,2.60
2023-04-15T16:25:03.365Z,3.70
2023-04-15T16:26:03.271Z,5.70
2023-04-15T16:27:03.279Z,2.80
2023-04-15T16:28:08.854Z,3.20
2023-04-15T16:29:04.482Z,6.10
2023-04-15T16:30:03.215Z,10.20
2023-04-15T16:31:03.207Z,2.40
2023-04-15T16:32:03.214Z,2.30
2023-04-15T16:33:03.190Z,2.50
2023-04-15T16:34:03.162Z,3.10
2023-04-15T16:35:03.245Z,2.60
2023-04-15T16:36:03.148Z,2.70
2023-04-15T16:37:03.143Z,2.80
2023-04-15T16:38:03.125Z,2.90
2023-04-15T16:39:03.435Z,2.80
2023-04-15T16:40:03.083Z,2.70
2023-04-15T16:41:03.081Z,3.60
2023-04-15T16:42:03.094Z,2.90
2023-04-15T16:43:03.038Z,3.50
2023-04-15T16:44:03.032Z,3.00
2023-04-15T16:45:03.038Z,3.20
2023-04-15T16:46:03.052Z,3.40
2023-04-15T16:47:02.992Z,3.30
2023-04-15T16:48:03.032Z,3.40
2023-04-15T16:49:03.259Z,3.30
2023-04-15T16:50:02.954Z,3.40
2023-04-15T16:51:02.954Z,3.40
2023-04-15T16:52:02.945Z,3.80
2023-04-15T16:53:02.914Z,3.60
2023-04-15T16:54:02.900Z,4.20
2023-04-15T16:55:02.889Z,4.00
2023-04-15T16:56:02.875Z,4.40
2023-04-15T16:57:02.870Z,4.40
2023-04-15T16:58:04.188Z,4.10
2023-04-15T16:59:02.989Z,4.60
2023-04-15T17:00:02.830Z,4.20
2023-04-15T17:01:02.846Z,4.90
2023-04-15T17:02:02.895Z,4.50
2023-04-15T17:03:03.094Z,4.40
2023-04-15T17:04:02.889Z,4.50
2023-04-15T17:05:02.796Z,4.80
2023-04-15T17:06:02.750Z,6.00
2023-04-15T17:07:02.756Z,4.90
2023-04-15T17:08:02.735Z,4.80
2023-04-15T17:09:02.780Z,4.80
2023-04-15T17:10:02.694Z,6.10
2023-04-15T17:11:02.676Z,5.10
2023-04-15T17:12:02.678Z,5.20
2023-04-15T17:13:02.652Z,4.70
2023-04-15T17:14:02.669Z,4.90
2023-04-15T17:15:02.629Z,5.50
2023-04-15T17:16:02.656Z,5.00
2023-04-15T17:17:02.603Z,5.30
2023-04-15T17:18:02.609Z,5.30
2023-04-15T17:19:02.671Z,5.40
2023-04-15T17:20:02.569Z,6.00
2023-04-15T17:21:02.554Z,5.70
2023-04-15T17:22:02.546Z,5.80
2023-04-15T17:23:02.510Z,5.40
2023-04-15T17:24:02.526Z,6.20
2023-04-15T17:25:02.494Z,5.40
2023-04-15T17:26:02.475Z,5.30
2023-04-15T17:27:03.699Z,5.20
2023-04-15T17:28:02.452Z,5.20
2023-04-15T17:29:02.649Z,5.20
2023-04-15T17:30:02.420Z,5.20